Time;durP1;ratioP1;P1;durP2;ratioP2;P2;SDS_P1;SDS_P2;PMS_P1;PMS_P2;Temp;Humidity;BMP_temperature;BMP_pressure;BME280_temperature;BME280_humidity;BME280_pressure;Samples;Min_cycle;Max_cycle;Signal;HPM_P1;HPM_P2
2021/03/19 00:00:41;;;;;;;39.70;35.78;;;;;;;;;;5097695;28;20212;-75
2021/03/19 00:03:08;;;;;;;41.17;36.80;;;;;;;;;;5098151;28;20292;-75
2021/03/19 00:05:35;;;;;;;40.30;36.15;;;;;;;;;;5098902;28;20220;-75
2021/03/19 00:08:02;;;;;;;40.65;36.35;;;;;;;;;;5099095;28;20194;-75
2021/03/19 00:10:30;;;;;;;41.63;37.53;;;;;;;;;;5098340;28;20195;-75
2021/03/19 00:13:01;;;;;;;41.97;37.75;;;;;;;;;;5098224;28;20193;-75
2021/03/19 00:15:28;;;;;;;41.22;37.05;;;;;;;;;;5097417;28;20217;-75
2021/03/19 00:17:56;;;;;;;43.45;37.70;;;;;;;;;;5099221;28;20211;-75
2021/03/19 00:20:23;;;;;;;41.63;37.45;;;;;;;;;;5097629;28;20226;-75
2021/03/19 00:22:50;;;;;;;41.42;37.20;;;;;;;;;;5097575;28;20196;-74
2021/03/19 00:25:17;;;;;;;44.50;40.15;;;;;;;;;;5096070;28;20248;-75
2021/03/19 00:27:44;;;;;;;41.70;37.60;;;;;;;;;;5096014;28;20619;-75
2021/03/19 00:30:12;;;;;;;42.78;38.35;;;;;;;;;;5097368;27;20214;-75
2021/03/19 00:32:39;;;;;;;44.92;40.25;;;;;;;;;;5097109;28;20578;-75
2021/03/19 00:35:08;;;;;;;42.38;38.00;;;;;;;;;;5095611;28;20641;-75
2021/03/19 00:37:35;;;;;;;42.42;38.15;;;;;;;;;;5097495;28;20183;-75
2021/03/19 00:40:02;;;;;;;42.17;37.85;;;;;;;;;;5096426;28;20633;-75
2021/03/19 00:42:29;;;;;;;40.58;36.58;;;;;;;;;;5095846;28;20187;-75
2021/03/19 00:44:56;;;;;;;41.80;37.38;;;;;;;;;;5096704;28;20271;-75
2021/03/19 00:47:23;;;;;;;37.38;33.75;;;;;;;;;;5096532;28;20183;-75
2021/03/19 00:49:50;;;;;;;40.50;36.55;;;;;;;;;;5096372;28;20196;-75
2021/03/19 00:52:18;;;;;;;37.50;33.85;;;;;;;;;;5095272;28;20200;-75
2021/03/19 00:54:45;;;;;;;38.65;34.92;;;;;;;;;;5096272;28;20187;-75
2021/03/19 00:57:12;;;;;;;41.35;37.03;;;;;;;;;;5095695;28;20684;-75
2021/03/19 00:59:38;;;;;;;35.97;32.47;;;;;;;;;;5096332;28;20192;-75
2021/03/19 01:02:05;;;;;;;36.50;32.97;;;;;;;;;;5096341;28;20191;-75
2021/03/19 01:04:32;;;;;;;37.75;33.92;;;;;;;;;;5096667;28;20191;-75
2021/03/19 01:06:59;;;;;;;37.65;34.15;;;;;;;;;;5095820;28;20282;-75
2021/03/19 01:09:27;;;;;;;37.35;33.85;;;;;;;;;;5096851;28;20690;-75
2021/03/19 01:11:54;;;;;;;36.85;33.25;;;;;;;;;;5096884;28;20235;-75
2021/03/19 01:14:22;;;;;;;37.50;33.97;;;;;;;;;;5096917;28;20199;-75
2021/03/19 01:16:49;;;;;;;37.83;34.38;;;;;;;;;;5096749;28;20184;-75
2021/03/19 01:19:16;;;;;;;36.17;32.33;;;;;;;;;;5095967;28;20187;-75
2021/03/19 01:21:43;;;;;;;35.97;32.67;;;;;;;;;;5095546;28;20218;-75
2021/03/19 01:24:10;;;;;;;35.00;31.77;;;;;;;;;;5096529;28;20696;-75
2021/03/19 01:26:38;;;;;;;36.03;32.58;;;;;;;;;;5096415;28;20195;-75
2021/03/19 01:29:05;;;;;;;36.25;33.00;;;;;;;;;;5096675;28;20191;-74
2021/03/19 01:31:32;;;;;;;35.53;32.30;;;;;;;;;;5096813;28;20201;-75
2021/03/19 01:34:00;;;;;;;37.13;33.65;;;;;;;;;;5096461;28;20191;-75
2021/03/19 01:36:31;;;;;;;38.22;34.13;;;;;;;;;;5097266;28;20194;-74
2021/03/19 01:38:58;;;;;;;36.47;33.03;;;;;;;;;;5097337;28;20199;-75
2021/03/19 01:41:25;;;;;;;36.30;33.10;;;;;;;;;;5096839;28;20226;-76
2021/03/19 01:43:53;;;;;;;34.97;31.83;;;;;;;;;;5095499;28;20213;-76
2021/03/19 01:46:38;;;;;;;36.85;33.08;;;;;;;;;;5096076;28;20198;-75
2021/03/19 01:49:26;;;;;;;36.95;33.60;;;;;;;;;;5095423;28;20191;-75
2021/03/19 01:52:11;;;;;;;34.35;31.35;;;;;;;;;;5096095;28;20668;-75
2021/03/19 01:54:57;;;;;;;38.42;34.95;;;;;;;;;;5097427;28;20184;-75
2021/03/19 01:57:42;;;;;;;39.08;34.90;;;;;;;;;;5095885;28;20230;-75
2021/03/19 02:00:27;;;;;;;36.08;32.72;;;;;;;;;;5095839;28;20675;-75
2021/03/19 02:03:13;;;;;;;35.80;32.40;;;;;;;;;;5095926;28;20199;-75
2021/03/19 02:06:00;;;;;;;42.25;35.22;;;;;;;;;;5095560;28;20184;-75
2021/03/19 02:08:45;;;;;;;37.13;33.50;;;;;;;;;;5070210;28;20338;-75
2021/03/19 02:11:31;;;;;;;39.67;35.72;;;;;;;;;;5094934;28;20245;-75
2021/03/19 02:14:17;;;;;;;40.58;36.35;;;;;;;;;;5095806;28;20252;-75
2021/03/19 02:17:02;;;;;;;40.45;36.30;;;;;;;;;;5095098;28;20190;-75
2021/03/19 02:19:48;;;;;;;38.92;34.80;;;;;;;;;;5095710;28;20402;-75
2021/03/19 02:22:33;;;;;;;38.38;34.55;;;;;;;;;;5096665;28;20236;-75
2021/03/19 02:25:19;;;;;;;38.60;33.65;;;;;;;;;;5095039;28;20254;-75
2021/03/19 02:28:05;;;;;;;39.45;35.45;;;;;;;;;;5095525;28;20198;-75
2021/03/19 02:30:50;;;;;;;38.80;34.78;;;;;;;;;;5094298;28;20206;-75
2021/03/19 02:33:18;;;;;;;42.33;35.67;;;;;;;;;;5095409;28;20595;-75
2021/03/19 02:35:52;;;;;;;38.08;34.42;;;;;;;;;;5095424;28;20194;-75
2021/03/19 02:38:19;;;;;;;39.25;35.55;;;;;;;;;;5096439;28;20183;-75
2021/03/19 02:40:46;;;;;;;39.25;35.17;;;;;;;;;;5095670;28;20572;-75
2021/03/19 02:43:13;;;;;;;36.33;32.92;;;;;;;;;;5094947;28;20187;-75
2021/03/19 02:45:40;;;;;;;37.63;34.05;;;;;;;;;;5094913;28;20194;-75
2021/03/19 02:48:07;;;;;;;38.03;34.30;;;;;;;;;;5094529;28;20191;-75
2021/03/19 02:50:35;;;;;;;35.33;31.70;;;;;;;;;;5094236;28;20661;-74
2021/03/19 02:53:02;;;;;;;37.20;33.60;;;;;;;;;;5093940;28;20187;-75
2021/03/19 02:55:29;;;;;;;34.65;31.45;;;;;;;;;;5094438;28;20554;-75
2021/03/19 02:57:56;;;;;;;32.58;29.90;;;;;;;;;;5094657;28;20237;-74
2021/03/19 03:00:24;;;;;;;33.53;30.55;;;;;;;;;;5094115;28;20226;-74
2021/03/19 03:02:52;;;;;;;33.72;30.50;;;;;;;;;;5094324;28;20313;-75
2021/03/19 03:05:19;;;;;;;33.38;30.55;;;;;;;;;;5093786;28;20188;-75
2021/03/19 03:07:47;;;;;;;36.00;32.72;;;;;;;;;;5095233;28;20198;-75
2021/03/19 03:10:16;;;;;;;34.70;31.63;;;;;;;;;;5095586;28;20195;-75
2021/03/19 03:12:43;;;;;;;34.53;31.35;;;;;;;;;;5097276;28;20195;-75
2021/03/19 03:15:11;;;;;;;34.00;30.80;;;;;;;;;;5095039;28;20187;-75
2021/03/19 03:17:38;;;;;;;32.35;29.65;;;;;;;;;;5094939;28;20209;-75
2021/03/19 03:20:05;;;;;;;34.22;30.85;;;;;;;;;;5094444;28;20210;-75
2021/03/19 03:22:33;;;;;;;34.53;31.52;;;;;;;;;;5094289;28;20187;-75
2021/03/19 03:25:00;;;;;;;35.20;31.75;;;;;;;;;;5093933;28;20253;-75
2021/03/19 03:27:27;;;;;;;34.25;30.85;;;;;;;;;;5093711;28;20183;-75
2021/03/19 03:29:54;;;;;;;31.75;28.75;;;;;;;;;;5094068;28;20202;-75
2021/03/19 03:32:21;;;;;;;32.95;30.05;;;;;;;;;;5093693;28;20195;-75
2021/03/19 03:34:48;;;;;;;33.00;30.00;;;;;;;;;;5094702;28;20188;-75
2021/03/19 03:37:15;;;;;;;33.75;30.50;;;;;;;;;;5093838;28;20184;-75
2021/03/19 03:39:42;;;;;;;32.75;29.63;;;;;;;;;;5092613;28;20191;-75
2021/03/19 03:42:10;;;;;;;33.80;30.58;;;;;;;;;;5092606;28;20579;-75
2021/03/19 03:44:37;;;;;;;33.60;30.33;;;;;;;;;;5093867;28;20191;-75
2021/03/19 03:47:05;;;;;;;32.95;29.95;;;;;;;;;;5093968;28;20210;-75
2021/03/19 03:49:32;;;;;;;32.65;29.55;;;;;;;;;;5093783;28;20195;-75
2021/03/19 03:51:59;;;;;;;32.15;29.40;;;;;;;;;;5093390;28;20191;-75
2021/03/19 03:54:28;;;;;;;32.70;29.90;;;;;;;;;;5093845;28;20655;-75
2021/03/19 03:56:54;;;;;;;33.55;30.45;;;;;;;;;;5093046;28;20266;-75
2021/03/19 03:59:22;;;;;;;35.95;32.78;;;;;;;;;;5093328;28;20195;-76
2021/03/19 04:01:52;;;;;;;32.70;29.90;;;;;;;;;;5093190;28;20582;-75
2021/03/19 04:04:19;;;;;;;33.38;30.25;;;;;;;;;;5093951;28;20202;-75
2021/03/19 04:06:46;;;;;;;33.05;30.25;;;;;;;;;;5093568;28;20187;-75
2021/03/19 04:09:13;;;;;;;32.95;30.10;;;;;;;;;;5093122;28;20236;-75
2021/03/19 04:11:40;;;;;;;33.83;30.58;;;;;;;;;;5093171;28;20203;-74
2021/03/19 04:14:07;;;;;;;31.48;28.88;;;;;;;;;;5093693;28;20187;-75
2021/03/19 04:16:35;;;;;;;33.03;30.33;;;;;;;;;;5096900;28;20237;-75
2021/03/19 04:19:02;;;;;;;32.70;29.90;;;;;;;;;;5097033;28;20194;-75
2021/03/19 04:21:29;;;;;;;30.67;27.98;;;;;;;;;;5097013;28;20733;-75
2021/03/19 04:23:55;;;;;;;31.70;29.20;;;;;;;;;;5097115;28;20696;-75
2021/03/19 04:26:25;;;;;;;32.58;29.88;;;;;;;;;;5096867;28;20343;-75
2021/03/19 04:28:52;;;;;;;33.38;30.33;;;;;;;;;;5097063;28;20195;-75
2021/03/19 04:31:19;;;;;;;32.55;29.75;;;;;;;;;;5096658;28;20191;-75
2021/03/19 04:33:47;;;;;;;31.40;28.88;;;;;;;;;;5096507;28;20194;-75
2021/03/19 04:36:30;;;;;;;32.58;29.95;;;;;;;;;;5096927;28;20216;-75
2021/03/19 04:38:59;;;;;;;32.47;29.65;;;;;;;;;;5095216;28;20301;-75
2021/03/19 04:41:27;;;;;;;32.17;29.48;;;;;;;;;;5097283;28;20214;-75
2021/03/19 04:43:54;;;;;;;31.58;28.98;;;;;;;;;;5096451;28;20192;-75
2021/03/19 04:46:21;;;;;;;33.05;30.52;;;;;;;;;;5096865;28;20198;-75
2021/03/19 04:48:49;;;;;;;32.15;29.50;;;;;;;;;;5096491;28;20189;-76
2021/03/19 04:51:16;;;;;;;30.50;28.10;;;;;;;;;;5096234;28;20234;-75
2021/03/19 04:53:44;;;;;;;32.30;29.80;;;;;;;;;;5096564;28;20506;-75
2021/03/19 04:56:11;;;;;;;31.33;28.77;;;;;;;;;;5096126;28;20229;-75
2021/03/19 04:58:38;;;;;;;31.08;28.58;;;;;;;;;;5096335;28;20191;-75
2021/03/19 05:01:04;;;;;;;30.75;28.45;;;;;;;;;;5096293;28;20725;-75
2021/03/19 05:03:32;;;;;;;30.48;28.08;;;;;;;;;;5096284;28;20244;-75
2021/03/19 05:06:00;;;;;;;30.75;28.25;;;;;;;;;;5095805;28;20191;-75
2021/03/19 05:08:27;;;;;;;30.35;28.10;;;;;;;;;;5096308;28;20190;-75
2021/03/19 05:10:54;;;;;;;29.92;27.75;;;;;;;;;;5094767;28;20191;-75
2021/03/19 05:13:21;;;;;;;28.30;25.92;;;;;;;;;;5095919;28;20194;-75
2021/03/19 05:15:48;;;;;;;28.02;26.13;;;;;;;;;;5096015;28;20196;-75
2021/03/19 05:18:15;;;;;;;28.80;26.85;;;;;;;;;;5094610;28;20196;-75
2021/03/19 05:20:42;;;;;;;29.40;27.23;;;;;;;;;;5094551;28;20284;-75
2021/03/19 05:23:18;;;;;;;29.63;27.33;;;;;;;;;;5094421;28;20221;-75
2021/03/19 05:25:44;;;;;;;30.88;28.50;;;;;;;;;;5095629;28;20183;-74
2021/03/19 05:28:11;;;;;;;41.05;37.30;;;;;;;;;;5095270;28;20295;-74
2021/03/19 05:30:38;;;;;;;33.47;30.33;;;;;;;;;;5095155;28;20191;-75
2021/03/19 05:33:06;;;;;;;30.35;27.38;;;;;;;;;;5095731;28;20511;-74
2021/03/19 05:35:33;;;;;;;26.95;25.05;;;;;;;;;;5095279;28;20187;-75
2021/03/19 05:38:00;;;;;;;28.05;26.15;;;;;;;;;;5095556;28;20183;-74
2021/03/19 05:40:34;;;;;;;29.10;27.10;;;;;;;;;;5095445;28;20211;-74
2021/03/19 05:43:19;;;;;;;28.98;26.83;;;;;;;;;;5096351;28;20191;-74
2021/03/19 05:45:51;;;;;;;28.70;26.70;;;;;;;;;;5095648;28;20282;-74
2021/03/19 05:48:18;;;;;;;28.63;26.42;;;;;;;;;;5095077;28;20194;-75
2021/03/19 05:50:44;;;;;;;28.60;26.42;;;;;;;;;;5094796;28;20187;-74
2021/03/19 05:53:13;;;;;;;27.70;25.60;;;;;;;;;;5094997;28;20213;-74
2021/03/19 05:55:41;;;;;;;27.60;25.40;;;;;;;;;;5095323;28;20545;-74
2021/03/19 05:58:09;;;;;;;28.35;26.35;;;;;;;;;;5094498;28;20227;-74
2021/03/19 06:00:36;;;;;;;27.67;25.80;;;;;;;;;;5094785;28;20570;-74
2021/03/19 06:03:03;;;;;;;27.77;25.83;;;;;;;;;;5095236;28;20187;-74
2021/03/19 06:05:31;;;;;;;27.20;25.40;;;;;;;;;;5094816;28;20190;-74
2021/03/19 06:07:59;;;;;;;27.00;25.10;;;;;;;;;;5094984;28;20187;-74
2021/03/19 06:10:31;;;;;;;26.30;24.45;;;;;;;;;;5095344;28;20191;-75
2021/03/19 06:13:11;;;;;;;26.52;24.73;;;;;;;;;;5094898;28;20208;-74
2021/03/19 06:15:40;;;;;;;28.63;26.60;;;;;;;;;;5094488;28;20187;-74
2021/03/19 06:18:08;;;;;;;27.75;25.45;;;;;;;;;;5094876;28;20690;-74
2021/03/19 06:20:35;;;;;;;27.10;25.25;;;;;;;;;;5095061;28;20688;-74
2021/03/19 06:23:07;;;;;;;27.55;25.63;;;;;;;;;;5095991;28;20254;-74
2021/03/19 06:25:39;;;;;;;28.00;26.17;;;;;;;;;;5095841;28;20191;-74
2021/03/19 06:28:11;;;;;;;27.52;25.83;;;;;;;;;;5096001;28;20237;-74
2021/03/19 06:30:40;;;;;;;28.13;26.15;;;;;;;;;;5097239;28;20214;-74
2021/03/19 06:33:24;;;;;;;28.40;26.23;;;;;;;;;;5105719;28;20256;-74
2021/03/19 06:36:08;;;;;;;26.58;24.38;;;;;;;;;;5102677;28;20202;-74
2021/03/19 06:38:37;;;;;;;27.17;25.42;;;;;;;;;;5095248;28;20599;-74
2021/03/19 06:41:21;;;;;;;27.08;25.17;;;;;;;;;;5094828;28;20263;-74
2021/03/19 06:43:49;;;;;;;24.85;23.15;;;;;;;;;;5098258;28;20191;-74
2021/03/19 06:46:20;;;;;;;27.13;25.13;;;;;;;;;;5095561;28;20183;-73
2021/03/19 06:49:01;;;;;;;26.77;24.75;;;;;;;;;;5096864;28;20191;-74
2021/03/19 06:51:29;;;;;;;28.83;26.58;;;;;;;;;;5095787;28;20727;-74
2021/03/19 06:54:05;;;;;;;26.80;25.08;;;;;;;;;;5096047;28;20519;-75
2021/03/19 06:56:35;;;;;;;28.25;25.55;;;;;;;;;;5095146;28;20237;-75
2021/03/19 06:59:17;;;;;;;27.25;25.23;;;;;;;;;;5095957;28;20198;-75
2021/03/19 07:01:45;;;;;;;25.98;24.27;;;;;;;;;;5097435;28;20218;-74
2021/03/19 07:04:42;;;;;;;25.42;23.80;;;;;;;;;;5094752;28;20202;-75
2021/03/19 07:07:25;;;;;;;26.80;25.10;;;;;;;;;;5093777;28;20236;-74
2021/03/19 07:09:57;;;;;;;26.48;24.73;;;;;;;;;;5094622;28;20183;-75
2021/03/19 07:12:32;;;;;;;25.90;24.20;;;;;;;;;;5094459;28;20190;-75
2021/03/19 07:15:13;;;;;;;26.20;24.48;;;;;;;;;;5094224;28;20186;-75
2021/03/19 07:17:57;;;;;;;25.75;24.15;;;;;;;;;;5094178;28;20187;-75
2021/03/19 07:20:29;;;;;;;26.83;25.13;;;;;;;;;;5093666;28;20268;-75
2021/03/19 07:23:00;;;;;;;25.88;24.17;;;;;;;;;;5093826;28;20215;-75
2021/03/19 07:25:37;;;;;;;28.25;26.15;;;;;;;;;;5092414;28;20247;-75
2021/03/19 07:28:15;;;;;;;26.58;24.58;;;;;;;;;;5092217;28;20286;-74
2021/03/19 07:30:51;;;;;;;25.20;23.38;;;;;;;;;;5093395;28;20199;-75
2021/03/19 07:33:36;;;;;;;26.13;24.33;;;;;;;;;;5092659;28;20199;-75
2021/03/19 07:36:10;;;;;;;25.98;24.23;;;;;;;;;;5093818;28;20183;-74
2021/03/19 07:39:00;;;;;;;24.60;23.10;;;;;;;;;;5093449;28;20191;-75
2021/03/19 07:41:35;;;;;;;26.08;24.27;;;;;;;;;;5093645;28;20220;-75
2021/03/19 07:44:06;;;;;;;27.02;25.15;;;;;;;;;;5094298;28;20541;-75
2021/03/19 07:46:37;;;;;;;24.05;22.45;;;;;;;;;;5093589;28;20198;-75
2021/03/19 07:49:15;;;;;;;26.38;24.15;;;;;;;;;;5093611;28;20187;-75
2021/03/19 07:51:48;;;;;;;25.20;23.45;;;;;;;;;;5095834;28;20195;-75
2021/03/19 07:54:17;;;;;;;25.50;23.80;;;;;;;;;;5097395;28;20198;-75
2021/03/19 07:56:57;;;;;;;25.98;24.25;;;;;;;;;;5097140;28;20333;-75
2021/03/19 07:59:32;;;;;;;26.15;24.33;;;;;;;;;;5097544;28;20191;-74
2021/03/19 08:02:15;;;;;;;24.05;22.55;;;;;;;;;;5097756;28;20217;-75
2021/03/19 08:04:44;;;;;;;26.83;24.83;;;;;;;;;;5097975;28;20282;-75
2021/03/19 08:07:20;;;;;;;26.50;24.52;;;;;;;;;;5097723;28;20202;-75
2021/03/19 08:09:55;;;;;;;23.92;22.48;;;;;;;;;;5097038;28;20190;-75
2021/03/19 08:12:26;;;;;;;26.80;24.40;;;;;;;;;;5097248;28;20652;-75
2021/03/19 08:15:04;;;;;;;24.92;23.33;;;;;;;;;;5097390;28;20188;-75
2021/03/19 08:17:37;;;;;;;25.40;23.65;;;;;;;;;;5096887;28;20593;-74
2021/03/19 08:20:11;;;;;;;25.50;23.65;;;;;;;;;;5097040;28;20574;-75
2021/03/19 08:22:39;;;;;;;25.35;23.65;;;;;;;;;;5091167;28;20297;-75
2021/03/19 08:25:07;;;;;;;25.33;23.63;;;;;;;;;;5093075;28;20187;-75
2021/03/19 08:27:39;;;;;;;25.13;23.52;;;;;;;;;;5096775;28;20183;-75
2021/03/19 08:30:08;;;;;;;26.50;24.33;;;;;;;;;;5096083;28;20244;-75
2021/03/19 08:32:43;;;;;;;25.33;23.65;;;;;;;;;;5096711;28;20316;-75
2021/03/19 08:35:14;;;;;;;25.92;24.02;;;;;;;;;;5096138;28;20196;-74
2021/03/19 08:37:45;;;;;;;25.80;23.65;;;;;;;;;;5096314;28;20210;-75
2021/03/19 08:40:17;;;;;;;26.27;24.35;;;;;;;;;;5086503;28;20215;-74
2021/03/19 08:42:45;;;;;;;25.35;23.73;;;;;;;;;;5081908;28;20695;-73
2021/03/19 08:45:17;;;;;;;23.55;21.92;;;;;;;;;;5076225;28;20196;-74
2021/03/19 08:47:46;;;;;;;25.73;23.85;;;;;;;;;;5077877;28;20188;-74
2021/03/19 08:50:15;;;;;;;23.80;22.30;;;;;;;;;;5076644;28;20195;-74
2021/03/19 08:52:43;;;;;;;25.13;23.42;;;;;;;;;;5081122;28;20196;-75
2021/03/19 08:55:24;;;;;;;24.80;23.13;;;;;;;;;;5081370;28;20222;-74
2021/03/19 08:57:52;;;;;;;24.75;23.15;;;;;;;;;;5076801;28;20698;-77
2021/03/19 09:00:39;;;;;;;24.70;22.85;;;;;;;;;;5076030;28;20199;-77
2021/03/19 09:03:27;;;;;;;24.20;22.52;;;;;;;;;;5070291;28;20657;-75
2021/03/19 09:06:10;;;;;;;24.55;23.05;;;;;;;;;;5075706;28;20201;-75
2021/03/19 09:08:52;;;;;;;24.45;22.85;;;;;;;;;;5074384;28;20207;-75
2021/03/19 09:11:19;;;;;;;24.83;23.02;;;;;;;;;;5075842;28;20533;-75
2021/03/19 09:14:05;;;;;;;24.27;22.42;;;;;;;;;;5075802;28;20201;-74
2021/03/19 09:16:52;;;;;;;25.17;23.48;;;;;;;;;;5075814;28;20202;-74
2021/03/19 09:19:40;;;;;;;23.58;21.98;;;;;;;;;;5075667;28;20196;-75
2021/03/19 09:22:34;;;;;;;23.95;22.27;;;;;;;;;;5075630;28;20238;-75
2021/03/19 09:25:19;;;;;;;23.50;22.00;;;;;;;;;;5013546;28;20203;-75
2021/03/19 09:27:48;;;;;;;24.60;22.90;;;;;;;;;;5014014;28;20213;-75
2021/03/19 09:30:24;;;;;;;23.75;22.25;;;;;;;;;;5013936;28;20198;-75
2021/03/19 09:32:52;;;;;;;23.60;22.00;;;;;;;;;;5013632;28;20602;-75
2021/03/19 09:35:37;;;;;;;22.63;21.27;;;;;;;;;;5013953;28;20212;-74
2021/03/19 09:38:05;;;;;;;22.67;21.17;;;;;;;;;;5013989;28;20251;-74
2021/03/19 09:40:43;;;;;;;23.40;21.70;;;;;;;;;;5014005;28;20566;-75
2021/03/19 09:43:11;;;;;;;22.23;20.83;;;;;;;;;;4999525;28;20252;-75
2021/03/19 09:45:48;;;;;;;23.60;22.00;;;;;;;;;;4998329;28;20643;-75
2021/03/19 09:48:18;;;;;;;22.92;21.42;;;;;;;;;;4998477;28;20243;-76
2021/03/19 09:50:50;;;;;;;23.38;21.88;;;;;;;;;;5014054;28;20326;-75
2021/03/19 09:53:24;;;;;;;23.15;21.65;;;;;;;;;;5013561;28;20196;-75
2021/03/19 09:55:53;;;;;;;22.52;21.13;;;;;;;;;;5013399;28;20190;-75
2021/03/19 09:58:21;;;;;;;23.45;21.75;;;;;;;;;;4997255;28;20270;-75
2021/03/19 10:00:49;;;;;;;23.30;21.80;;;;;;;;;;5047753;28;20236;-75
2021/03/19 10:03:16;;;;;;;23.33;21.92;;;;;;;;;;5075152;28;20627;-75
2021/03/19 10:05:45;;;;;;;23.17;21.67;;;;;;;;;;5075813;28;20193;-75
2021/03/19 10:08:24;;;;;;;23.30;21.90;;;;;;;;;;5075442;28;20216;-75
2021/03/19 10:10:51;;;;;;;23.05;21.48;;;;;;;;;;5074965;28;20290;-75
2021/03/19 10:13:20;;;;;;;23.13;21.73;;;;;;;;;;5074339;28;20196;-76
2021/03/19 10:15:48;;;;;;;22.98;21.58;;;;;;;;;;5074294;28;20587;-75
2021/03/19 10:18:24;;;;;;;22.63;21.23;;;;;;;;;;5075372;28;20212;-76
2021/03/19 10:20:54;;;;;;;22.80;21.35;;;;;;;;;;5076029;28;20294;-75
2021/03/19 10:23:28;;;;;;;22.88;21.48;;;;;;;;;;5076223;28;20229;-75
2021/03/19 10:26:05;;;;;;;23.08;21.67;;;;;;;;;;5077576;28;20227;-74
2021/03/19 10:28:32;;;;;;;23.85;22.33;;;;;;;;;;5076414;28;20204;-76
2021/03/19 10:31:01;;;;;;;23.35;21.75;;;;;;;;;;5074597;28;20214;-76
2021/03/19 10:33:32;;;;;;;22.60;21.20;;;;;;;;;;5076451;28;20194;-74
2021/03/19 10:36:00;;;;;;;23.00;21.55;;;;;;;;;;5075121;28;20218;-74
2021/03/19 10:38:34;;;;;;;23.02;21.63;;;;;;;;;;5074804;28;20195;-74
2021/03/19 10:41:01;;;;;;;22.65;21.15;;;;;;;;;;5074376;28;20236;-74
2021/03/19 10:43:31;;;;;;;23.77;22.38;;;;;;;;;;5074017;28;20257;-73
2021/03/19 10:45:59;;;;;;;23.90;22.33;;;;;;;;;;5073919;28;20220;-73
2021/03/19 10:48:32;;;;;;;23.38;21.77;;;;;;;;;;5072772;28;20207;-73
2021/03/19 10:51:02;;;;;;;22.85;21.25;;;;;;;;;;5072877;28;20252;-74
2021/03/19 10:53:38;;;;;;;22.30;20.70;;;;;;;;;;5073908;28;20188;-74
2021/03/19 10:56:05;;;;;;;22.67;21.08;;;;;;;;;;5073667;28;20218;-73
2021/03/19 10:58:37;;;;;;;22.67;21.27;;;;;;;;;;5073543;28;20318;-73
2021/03/19 11:01:19;;;;;;;22.60;21.20;;;;;;;;;;5073800;28;20208;-73
2021/03/19 11:03:49;;;;;;;21.90;20.70;;;;;;;;;;5073543;28;20197;-74
2021/03/19 11:06:30;;;;;;;23.45;21.95;;;;;;;;;;5073894;28;20224;-73
2021/03/19 11:09:06;;;;;;;23.08;21.58;;;;;;;;;;5074269;28;20193;-74
2021/03/19 11:11:33;;;;;;;23.17;21.77;;;;;;;;;;5073528;28;20196;-74
2021/03/19 11:14:02;;;;;;;22.48;21.08;;;;;;;;;;5073921;28;20213;-73
2021/03/19 11:16:31;;;;;;;22.33;20.92;;;;;;;;;;5073772;28;20185;-73
2021/03/19 11:19:03;;;;;;;23.58;22.15;;;;;;;;;;5073918;28;20213;-74
2021/03/19 11:21:31;;;;;;;22.30;20.83;;;;;;;;;;5073667;28;20250;-74
2021/03/19 11:24:19;;;;;;;22.63;21.17;;;;;;;;;;5073713;28;20558;-73
2021/03/19 11:26:55;;;;;;;23.85;22.35;;;;;;;;;;5076299;28;20196;-74
2021/03/19 11:29:25;;;;;;;22.90;21.35;;;;;;;;;;5077704;28;20203;-74
2021/03/19 11:31:56;;;;;;;23.23;21.83;;;;;;;;;;5077402;28;20610;-74
2021/03/19 11:34:29;;;;;;;23.17;21.60;;;;;;;;;;5077219;28;20197;-74
2021/03/19 11:36:59;;;;;;;23.30;21.80;;;;;;;;;;5077389;28;20194;-74
2021/03/19 11:39:35;;;;;;;23.50;21.80;;;;;;;;;;5076134;28;20205;-73
2021/03/19 11:42:04;;;;;;;23.13;21.73;;;;;;;;;;5077413;28;20224;-74
2021/03/19 11:44:31;;;;;;;23.42;21.83;;;;;;;;;;5078244;28;20197;-74
2021/03/19 11:46:58;;;;;;;23.63;22.20;;;;;;;;;;5077122;28;20186;-74
2021/03/19 11:49:25;;;;;;;22.88;21.48;;;;;;;;;;5076638;28;20204;-74
2021/03/19 11:51:52;;;;;;;23.17;21.75;;;;;;;;;;5077270;28;20281;-73
2021/03/19 11:54:19;;;;;;;23.38;21.83;;;;;;;;;;5077451;28;20192;-74
2021/03/19 11:56:47;;;;;;;22.57;21.17;;;;;;;;;;5076638;28;20686;-74
2021/03/19 11:59:14;;;;;;;23.00;21.70;;;;;;;;;;5077268;28;20485;-73
2021/03/19 12:01:41;;;;;;;23.73;22.33;;;;;;;;;;5079588;28;20224;-74
2021/03/19 12:04:08;;;;;;;22.90;21.60;;;;;;;;;;5077781;28;20209;-73
2021/03/19 12:06:36;;;;;;;21.90;20.60;;;;;;;;;;5076839;28;20214;-74
2021/03/19 12:09:04;;;;;;;23.02;21.63;;;;;;;;;;5076863;28;20193;-73
2021/03/19 12:11:35;;;;;;;22.35;20.95;;;;;;;;;;5076920;28;20193;-74
2021/03/19 12:14:04;;;;;;;23.30;21.80;;;;;;;;;;5076671;28;20194;-74
2021/03/19 12:16:31;;;;;;;22.60;21.20;;;;;;;;;;5076490;28;20195;-74
2021/03/19 12:18:58;;;;;;;22.60;21.00;;;;;;;;;;5076765;28;20639;-73
2021/03/19 12:21:25;;;;;;;21.77;20.58;;;;;;;;;;5076929;28;20237;-73
2021/03/19 12:23:54;;;;;;;22.42;21.13;;;;;;;;;;5076461;28;20193;-74
2021/03/19 12:26:21;;;;;;;21.88;20.58;;;;;;;;;;5076319;28;20225;-74
2021/03/19 12:28:50;;;;;;;21.67;20.38;;;;;;;;;;5077359;28;20201;-73
2021/03/19 12:31:18;;;;;;;22.35;21.00;;;;;;;;;;5076674;28;20354;-73
2021/03/19 12:33:46;;;;;;;22.65;21.00;;;;;;;;;;5076562;28;20272;-74
2021/03/19 12:36:13;;;;;;;22.23;20.98;;;;;;;;;;5077387;28;20205;-74
2021/03/19 12:38:40;;;;;;;22.67;21.27;;;;;;;;;;5075515;28;20185;-74
2021/03/19 12:41:07;;;;;;;23.67;22.27;;;;;;;;;;5076533;28;20212;-73
2021/03/19 12:43:34;;;;;;;22.48;21.17;;;;;;;;;;5076757;28;20521;-74
2021/03/19 12:46:01;;;;;;;22.00;20.80;;;;;;;;;;5076421;28;20188;-74
2021/03/19 12:48:29;;;;;;;23.35;21.85;;;;;;;;;;5075966;28;20188;-74
2021/03/19 12:50:56;;;;;;;22.52;21.23;;;;;;;;;;5075866;28;20644;-74
2021/03/19 12:53:24;;;;;;;23.37;21.37;;;;;;;;;;5075899;28;20535;-74
2021/03/19 12:55:51;;;;;;;23.23;21.83;;;;;;;;;;5075680;28;20415;-73
2021/03/19 12:58:20;;;;;;;23.30;21.90;;;;;;;;;;5075724;28;20241;-74
2021/03/19 13:00:47;;;;;;;24.05;22.45;;;;;;;;;;5075824;28;20186;-73
2021/03/19 13:03:14;;;;;;;23.27;21.90;;;;;;;;;;5075976;28;20220;-74
2021/03/19 13:05:44;;;;;;;22.65;21.35;;;;;;;;;;5075876;28;20648;-73
2021/03/19 13:08:11;;;;;;;22.98;21.67;;;;;;;;;;5075778;28;20645;-74
2021/03/19 13:10:39;;;;;;;22.95;21.65;;;;;;;;;;5076482;28;20190;-74
2021/03/19 13:13:06;;;;;;;22.70;21.40;;;;;;;;;;5076195;28;20193;-74
2021/03/19 13:15:35;;;;;;;23.30;21.70;;;;;;;;;;5076414;28;20185;-73
2021/03/19 13:18:02;;;;;;;22.50;21.17;;;;;;;;;;5075085;28;20197;-73
2021/03/19 13:20:29;;;;;;;22.60;21.30;;;;;;;;;;5076868;28;20547;-74
2021/03/19 13:22:57;;;;;;;23.35;22.05;;;;;;;;;;5075931;28;20234;-73
2021/03/19 13:25:26;;;;;;;21.53;20.23;;;;;;;;;;5075750;28;20239;-73
2021/03/19 13:27:53;;;;;;;22.05;20.75;;;;;;;;;;5074542;28;20465;-74
2021/03/19 13:30:21;;;;;;;22.33;21.03;;;;;;;;;;5075461;28;20694;-74
2021/03/19 13:32:48;;;;;;;22.60;21.30;;;;;;;;;;5075721;28;20418;-74
2021/03/19 13:35:19;;;;;;;21.58;20.38;;;;;;;;;;5075127;28;20433;-74
2021/03/19 13:37:46;;;;;;;22.33;20.93;;;;;;;;;;5075265;28;20191;-74
2021/03/19 13:40:15;;;;;;;22.38;21.00;;;;;;;;;;5075285;28;20436;-72
2021/03/19 13:42:42;;;;;;;22.40;21.10;;;;;;;;;;5074980;28;20226;-73
2021/03/19 13:45:09;;;;;;;22.50;21.20;;;;;;;;;;5075282;28;20449;-74
2021/03/19 13:47:36;;;;;;;21.55;20.35;;;;;;;;;;5074834;28;20222;-74
2021/03/19 13:50:05;;;;;;;22.77;21.48;;;;;;;;;;5074578;28;20235;-73
2021/03/19 13:52:32;;;;;;;22.00;20.80;;;;;;;;;;5074777;28;20195;-73
2021/03/19 13:54:59;;;;;;;22.60;21.40;;;;;;;;;;5074805;28;20219;-73
2021/03/19 13:57:27;;;;;;;22.20;20.90;;;;;;;;;;5073434;28;20272;-73
2021/03/19 13:59:54;;;;;;;22.25;20.95;;;;;;;;;;5074780;28;20980;-73
2021/03/19 14:02:22;;;;;;;23.05;21.75;;;;;;;;;;5075459;28;20260;-73
2021/03/19 14:04:49;;;;;;;23.30;21.95;;;;;;;;;;5074553;28;20187;-73
2021/03/19 14:07:16;;;;;;;22.83;21.42;;;;;;;;;;5074785;28;20194;-73
2021/03/19 14:09:43;;;;;;;24.10;22.70;;;;;;;;;;5074400;28;20196;-73
2021/03/19 14:12:10;;;;;;;23.38;21.92;;;;;;;;;;5073311;28;20681;-73
2021/03/19 14:14:38;;;;;;;22.90;21.58;;;;;;;;;;5074340;28;20184;-74
2021/03/19 14:17:05;;;;;;;23.60;22.20;;;;;;;;;;5074666;28;20293;-74
2021/03/19 14:19:31;;;;;;;22.85;21.45;;;;;;;;;;5074239;28;20203;-73
2021/03/19 14:21:59;;;;;;;22.98;21.67;;;;;;;;;;5073165;28;20238;-76
2021/03/19 14:24:26;;;;;;;23.40;22.00;;;;;;;;;;5075116;28;20202;-75
2021/03/19 14:26:52;;;;;;;23.83;22.52;;;;;;;;;;5088098;28;20215;-75
2021/03/19 14:29:19;;;;;;;24.73;23.13;;;;;;;;;;5079033;28;20286;-75
2021/03/19 14:31:47;;;;;;;23.00;21.70;;;;;;;;;;5074363;28;20207;-75
2021/03/19 14:34:14;;;;;;;24.25;22.95;;;;;;;;;;5074264;28;20735;-75
2021/03/19 14:36:42;;;;;;;25.23;23.45;;;;;;;;;;5074283;28;20189;-74